Time;durP1;ratioP1;P1;durP2;ratioP2;P2;SDS_P1;SDS_P2;PMS_P1;PMS_P2;Temp;Humidity;BMP_temperature;BMP_pressure;BME280_temperature;BME280_humidity;BME280_pressure;Samples;Min_cycle;Max_cycle;Signal;HPM_P1;HPM_P2
2022/01/05 00:00:40;;;;;;;1.42;0.43;;;6.20;93.70;;;;;;5013925;28;20063;-80
2022/01/05 00:03:06;;;;;;;0.60;0.40;;;6.30;93.70;;;;;;5041336;28;20085;-81
2022/01/05 00:05:31;;;;;;;0.38;0.38;;;6.30;93.70;;;;;;5041303;28;20064;-80
2022/01/05 00:07:57;;;;;;;0.40;0.40;;;6.30;93.70;;;;;;5012196;28;20113;-80
2022/01/05 00:10:23;;;;;;;1.95;0.30;;;6.30;93.70;;;;;;5049380;28;20119;-80
2022/01/05 00:12:48;;;;;;;0.40;0.40;;;6.20;93.70;;;;;;5040483;28;20198;-80
2022/01/05 00:15:14;;;;;;;0.40;0.30;;;6.20;93.70;;;;;;5038967;28;20033;-80
2022/01/05 00:17:39;;;;;;;0.40;0.30;;;6.30;93.70;;;;;;5014608;28;20650;-80
2022/01/05 00:20:05;;;;;;;0.30;0.30;;;6.20;93.70;;;;;;5021600;28;20445;-80
2022/01/05 00:22:31;;;;;;;0.30;0.30;;;6.20;93.70;;;;;;5041752;28;20041;-81
2022/01/05 00:24:56;;;;;;;0.85;0.40;;;6.20;93.70;;;;;;5044979;28;20087;-81
2022/01/05 00:27:22;;;;;;;0.30;0.30;;;6.20;93.70;;;;;;5042648;28;20084;-81
2022/01/05 00:29:47;;;;;;;0.30;0.30;;;6.20;93.70;;;;;;5040039;28;20779;-83
2022/01/05 00:32:13;;;;;;;0.40;0.40;;;6.20;93.70;;;;;;5024199;28;21001;-80
2022/01/05 00:34:38;;;;;;;0.35;0.30;;;6.20;93.80;;;;;;5031295;28;20049;-80
2022/01/05 00:37:04;;;;;;;0.40;0.40;;;6.20;93.70;;;;;;5050011;28;20045;-80
2022/01/05 00:39:30;;;;;;;0.30;0.30;;;6.20;93.70;;;;;;5030140;28;20499;-80
2022/01/05 00:41:55;;;;;;;0.30;0.30;;;6.20;93.70;;;;;;5038251;28;20039;-80
2022/01/05 00:44:21;;;;;;;0.40;0.28;;;6.20;93.70;;;;;;5043446;28;20579;-80
2022/01/05 00:46:46;;;;;;;0.30;0.30;;;6.20;93.70;;;;;;5016250;28;20657;-80
2022/01/05 00:49:12;;;;;;;0.30;0.30;;;6.20;93.70;;;;;;5037713;28;20040;-79
2022/01/05 00:51:38;;;;;;;0.40;0.40;;;6.30;93.70;;;;;;5037860;28;20041;-79
2022/01/05 00:54:04;;;;;;;0.38;0.38;;;6.20;93.70;;;;;;5024095;28;20037;-80
2022/01/05 00:56:30;;;;;;;0.93;0.50;;;6.20;93.70;;;;;;5045302;28;20049;-80
2022/01/05 00:58:55;;;;;;;0.50;0.32;;;6.20;93.80;;;;;;5040209;28;20072;-79
2022/01/05 01:01:21;;;;;;;0.35;0.35;;;6.20;93.80;;;;;;5000334;28;20044;-80
2022/01/05 01:03:46;;;;;;;1.65;0.30;;;6.20;93.70;;;;;;5024294;28;20057;-80
2022/01/05 01:06:12;;;;;;;0.30;0.30;;;6.20;93.80;;;;;;5035483;28;20129;-80
2022/01/05 01:08:37;;;;;;;0.40;0.40;;;6.20;93.80;;;;;;5047532;28;20107;-80
2022/01/05 01:11:03;;;;;;;0.60;0.60;;;6.20;93.80;;;;;;5034686;28;20503;-80
2022/01/05 01:13:28;;;;;;;0.45;0.45;;;6.20;93.80;;;;;;5021279;28;20037;-80
2022/01/05 01:15:54;;;;;;;0.65;0.50;;;6.20;93.80;;;;;;5051840;28;20038;-80
2022/01/05 01:18:20;;;;;;;0.82;0.45;;;6.30;93.80;;;;;;5042945;28;20062;-80
2022/01/05 01:20:47;;;;;;;0.50;0.50;;;6.20;93.80;;;;;;5041255;28;20033;-80
2022/01/05 01:23:13;;;;;;;0.30;0.30;;;6.20;93.80;;;;;;5039930;28;20032;-80
2022/01/05 01:25:39;;;;;;;2.33;0.57;;;6.20;93.80;;;;;;5021939;28;20037;-80
2022/01/05 01:28:04;;;;;;;0.40;0.40;;;6.30;93.80;;;;;;5031273;28;20586;-79
2022/01/05 01:30:31;;;;;;;0.40;0.40;;;6.30;93.80;;;;;;5038405;28;20040;-79
2022/01/05 01:32:58;;;;;;;0.75;0.52;;;6.30;93.80;;;;;;5053598;28;20043;-80
2022/01/05 01:35:23;;;;;;;0.50;0.50;;;6.30;93.90;;;;;;5028372;28;20116;-80
2022/01/05 01:37:49;;;;;;;0.40;0.40;;;6.30;93.80;;;;;;5039961;28;20128;-80
2022/01/05 01:40:14;;;;;;;0.30;0.30;;;6.30;93.80;;;;;;5040717;28;20128;-80
2022/01/05 01:42:40;;;;;;;0.40;0.30;;;6.30;93.80;;;;;;5026609;28;20055;-80
2022/01/05 01:45:06;;;;;;;0.73;0.40;;;6.30;93.80;;;;;;5037617;28;20492;-80
2022/01/05 01:47:31;;;;;;;0.28;0.28;;;6.30;93.80;;;;;;5040419;28;20459;-81
2022/01/05 01:49:57;;;;;;;0.30;0.30;;;6.30;93.80;;;;;;5020550;28;20626;-80
2022/01/05 01:52:22;;;;;;;0.30;0.30;;;6.30;93.80;;;;;;5023992;28;20037;-80
2022/01/05 01:54:48;;;;;;;0.30;0.30;;;6.30;93.80;;;;;;5033407;28;20217;-80
2022/01/05 01:57:13;;;;;;;0.22;0.22;;;6.30;93.80;;;;;;5045919;28;20111;-79
2022/01/05 01:59:39;;;;;;;0.30;0.30;;;6.30;93.80;;;;;;5039098;28;20037;-81
2022/01/05 02:02:05;;;;;;;0.50;0.40;;;6.30;93.80;;;;;;5034430;28;20131;-80
2022/01/05 02:04:31;;;;;;;0.20;0.20;;;6.30;93.80;;;;;;5006288;28;20068;-81
2022/01/05 02:06:57;;;;;;;0.30;0.28;;;6.30;93.80;;;;;;5042422;28;20475;-81
2022/01/05 02:09:22;;;;;;;0.80;0.32;;;6.30;93.80;;;;;;5041040;28;20040;-80
2022/01/05 02:11:48;;;;;;;0.20;0.20;;;6.30;93.80;;;;;;5042827;28;20572;-80
2022/01/05 02:14:13;;;;;;;0.30;0.30;;;6.30;93.80;;;;;;5043103;28;20130;-81
2022/01/05 02:16:43;;;;;;;0.20;0.20;;;6.30;93.90;;;;;;5039391;28;20033;-80
2022/01/05 02:19:08;;;;;;;0.38;0.30;;;6.30;93.90;;;;;;5036215;28;20032;-81
2022/01/05 02:21:36;;;;;;;0.25;0.25;;;6.30;93.80;;;;;;5021498;28;20037;-81
2022/01/05 02:24:03;;;;;;;0.40;0.40;;;6.30;93.90;;;;;;5036404;28;20084;-80
2022/01/05 02:26:28;;;;;;;0.30;0.30;;;6.30;93.80;;;;;;5050003;28;20033;-80
2022/01/05 02:28:54;;;;;;;1.15;0.30;;;6.30;93.90;;;;;;5038401;28;20043;-79
2022/01/05 02:31:19;;;;;;;0.30;0.30;;;6.20;93.80;;;;;;5037730;28;20036;-80
2022/01/05 02:33:45;;;;;;;0.40;0.40;;;6.20;93.80;;;;;;5033263;28;20598;-80
2022/01/05 02:36:14;;;;;;;0.60;0.40;;;6.20;93.80;;;;;;5051637;28;20029;-80
2022/01/05 02:38:39;;;;;;;0.70;0.38;;;6.30;93.80;;;;;;5051581;28;20032;-80
2022/01/05 02:41:07;;;;;;;0.30;0.30;;;6.20;93.80;;;;;;5037570;28;20031;-80
2022/01/05 02:43:34;;;;;;;0.20;0.20;;;6.20;93.80;;;;;;5034455;28;20029;-80
2022/01/05 02:45:59;;;;;;;0.38;0.28;;;6.20;93.80;;;;;;4994643;28;20099;-80
2022/01/05 02:48:25;;;;;;;0.22;0.20;;;6.20;93.90;;;;;;5007722;28;20041;-81
2022/01/05 02:50:54;;;;;;;0.30;0.30;;;6.30;93.90;;;;;;5033339;28;20037;-80
2022/01/05 02:53:19;;;;;;;1.13;0.28;;;6.30;93.90;;;;;;4999648;28;20047;-81
2022/01/05 02:55:45;;;;;;;0.50;0.30;;;6.20;93.90;;;;;;5032439;28;20041;-80
2022/01/05 02:58:10;;;;;;;0.20;0.20;;;6.20;93.90;;;;;;5020657;28;20121;-81
2022/01/05 03:00:36;;;;;;;0.30;0.30;;;6.30;93.90;;;;;;5042591;28;20033;-80
2022/01/05 03:03:01;;;;;;;1.15;0.65;;;6.30;93.90;;;;;;5020469;28;20060;-80
2022/01/05 03:05:27;;;;;;;0.40;0.30;;;6.30;93.90;;;;;;5036512;28;20045;-80
2022/01/05 03:07:53;;;;;;;0.80;0.47;;;6.20;93.90;;;;;;5029303;28;20099;-80
2022/01/05 03:10:19;;;;;;;0.50;0.30;;;6.30;93.90;;;;;;5030192;28;20523;-80
2022/01/05 03:12:44;;;;;;;0.40;0.28;;;6.30;93.90;;;;;;5017335;28;20112;-81
2022/01/05 03:15:10;;;;;;;0.60;0.40;;;6.30;93.90;;;;;;5020181;28;20025;-80
2022/01/05 03:17:35;;;;;;;2.78;0.43;;;6.30;93.90;;;;;;5043003;28;20041;-80
2022/01/05 03:20:01;;;;;;;0.20;0.20;;;6.30;93.90;;;;;;5020257;28;20440;-80
2022/01/05 03:22:26;;;;;;;0.28;0.28;;;6.30;93.90;;;;;;5034474;28;20095;-80
2022/01/05 03:24:52;;;;;;;0.40;0.38;;;6.30;93.90;;;;;;5037988;28;20045;-80
2022/01/05 03:27:18;;;;;;;0.20;0.20;;;6.30;93.90;;;;;;5020578;28;20033;-80
2022/01/05 03:29:43;;;;;;;0.57;0.20;;;6.30;93.90;;;;;;5026033;28;20104;-80
2022/01/05 03:32:09;;;;;;;0.68;0.30;;;6.30;93.90;;;;;;5043094;28;20581;-80
2022/01/05 03:34:36;;;;;;;0.50;0.50;;;6.30;93.90;;;;;;5037498;28;20033;-80
2022/01/05 03:37:02;;;;;;;0.20;0.20;;;6.30;93.90;;;;;;5036847;28;20061;-80
2022/01/05 03:39:28;;;;;;;0.40;0.28;;;6.30;93.90;;;;;;5037878;28;20052;-80
2022/01/05 03:41:53;;;;;;;0.38;0.30;;;6.30;93.90;;;;;;5038488;28;20053;-80
2022/01/05 03:44:19;;;;;;;0.95;0.90;;;6.30;93.90;;;;;;5033008;28;20523;-81
2022/01/05 03:46:44;;;;;;;0.30;0.30;;;6.30;93.90;;;;;;5045834;28;20033;-80
2022/01/05 03:49:10;;;;;;;0.77;0.20;;;6.30;93.90;;;;;;5039117;28;20041;-80
2022/01/05 03:51:35;;;;;;;0.45;0.35;;;6.30;93.90;;;;;;5037926;28;20028;-80
2022/01/05 03:54:01;;;;;;;0.73;0.30;;;6.30;93.90;;;;;;5007830;28;20039;-80
2022/01/05 03:56:26;;;;;;;0.20;0.20;;;6.30;93.90;;;;;;5037446;28;20094;-79
2022/01/05 03:58:52;;;;;;;0.95;0.20;;;6.30;93.90;;;;;;5040810;28;20044;-80
2022/01/05 04:01:17;;;;;;;0.20;0.20;;;6.30;93.90;;;;;;5041577;28;20100;-80
2022/01/05 04:03:43;;;;;;;0.30;0.30;;;6.30;93.90;;;;;;5038201;28;20040;-82
2022/01/05 04:06:08;;;;;;;1.30;0.30;;;6.30;93.90;;;;;;5038529;28;20041;-81
2022/01/05 04:08:34;;;;;;;0.32;0.30;;;6.30;93.90;;;;;;5022578;28;20036;-81
2022/01/05 04:10:59;;;;;;;0.35;0.20;;;6.30;93.90;;;;;;5038916;28;20032;-81
2022/01/05 04:13:25;;;;;;;0.20;0.20;;;6.30;93.90;;;;;;5035185;28;20099;-81
2022/01/05 04:15:50;;;;;;;1.13;0.20;;;6.30;93.90;;;;;;5041847;28;20035;-81
2022/01/05 04:18:16;;;;;;;0.20;0.20;;;6.30;93.90;;;;;;5039308;28;20025;-80
2022/01/05 04:20:41;;;;;;;0.20;0.20;;;6.30;93.90;;;;;;5040568;28;20109;-81
2022/01/05 04:23:07;;;;;;;0.20;0.20;;;6.30;93.90;;;;;;5043014;28;20795;-80
2022/01/05 04:25:33;;;;;;;0.95;0.30;;;6.30;93.90;;;;;;5041595;28;20452;-80
2022/01/05 04:27:59;;;;;;;2.10;0.35;;;6.30;93.90;;;;;;5039802;28;20070;-80
2022/01/05 04:30:25;;;;;;;1.25;0.32;;;6.30;94.00;;;;;;5034085;28;20040;-80
2022/01/05 04:32:50;;;;;;;0.35;0.35;;;6.30;94.00;;;;;;5043625;28;20042;-81
2022/01/05 04:35:16;;;;;;;1.27;0.43;;;6.30;94.00;;;;;;5041149;28;20082;-80
2022/01/05 04:37:41;;;;;;;1.23;0.30;;;6.30;93.90;;;;;;5034140;28;20102;-81
2022/01/05 04:40:08;;;;;;;0.50;0.30;;;6.20;93.80;;;;;;5038810;28;20044;-80
2022/01/05 04:42:34;;;;;;;0.30;0.30;;;6.20;93.80;;;;;;5033015;28;20597;-80
2022/01/05 04:45:00;;;;;;;0.63;0.28;;;6.20;93.80;;;;;;5030336;28;20045;-80
2022/01/05 04:47:25;;;;;;;0.30;0.25;;;6.10;93.70;;;;;;5028438;28;20518;-80
2022/01/05 04:49:51;;;;;;;0.32;0.20;;;6.10;93.70;;;;;;5041453;28;20025;-81
2022/01/05 04:52:16;;;;;;;1.58;1.17;;;6.00;93.60;;;;;;5034938;28;20055;-81
2022/01/05 04:54:42;;;;;;;1.08;0.63;;;6.00;93.50;;;;;;5049570;28;20460;-80
2022/01/05 04:57:07;;;;;;;0.40;0.20;;;5.90;93.80;;;;;;5040305;28;20085;-80
2022/01/05 04:59:33;;;;;;;0.65;0.30;;;5.80;93.40;;;;;;5022713;28;20032;-80
2022/01/05 05:01:59;;;;;;;0.75;0.30;;;5.70;93.30;;;;;;5043964;28;20511;-80
2022/01/05 05:04:24;;;;;;;0.20;0.20;;;5.60;93.30;;;;;;5024708;28;20087;-81
2022/01/05 05:06:50;;;;;;;0.30;0.20;;;5.50;93.30;;;;;;5033885;28;20047;-79
2022/01/05 05:09:16;;;;;;;1.20;0.20;;;5.50;93.40;;;;;;5025233;28;20021;-81
2022/01/05 05:11:42;;;;;;;2.13;0.35;;;5.50;93.40;;;;;;5038876;28;20037;-81
2022/01/05 05:14:08;;;;;;;0.20;0.20;;;5.50;93.50;;;;;;5044920;28;20044;-80
2022/01/05 05:16:34;;;;;;;0.20;0.20;;;5.50;93.50;;;;;;5034789;28;20132;-80
2022/01/05 05:18:59;;;;;;;1.30;0.30;;;5.50;93.50;;;;;;5040395;28;20116;-80
2022/01/05 05:21:25;;;;;;;0.20;0.20;;;5.50;93.40;;;;;;5037034;28;20032;-81
2022/01/05 05:23:50;;;;;;;1.17;0.20;;;5.50;93.40;;;;;;5042546;28;20029;-80
2022/01/05 05:26:16;;;;;;;0.45;0.30;;;5.50;93.40;;;;;;5045101;28;20035;-81
2022/01/05 05:28:41;;;;;;;0.32;0.17;;;5.50;93.40;;;;;;5040840;28;20462;-80
2022/01/05 05:31:07;;;;;;;0.15;0.13;;;5.50;93.40;;;;;;5040578;28;20128;-80
2022/01/05 05:33:32;;;;;;;0.80;0.20;;;5.50;93.40;;;;;;5038640;28;20450;-81
2022/01/05 05:35:58;;;;;;;0.20;0.20;;;5.40;93.30;;;;;;5040690;28;20431;-80
2022/01/05 05:38:24;;;;;;;0.30;0.10;;;5.40;93.30;;;;;;5039622;28;20505;-81
2022/01/05 05:40:50;;;;;;;1.15;0.20;;;5.30;93.20;;;;;;5040894;28;20040;-80
2022/01/05 05:43:15;;;;;;;2.67;0.57;;;5.30;93.20;;;;;;5024088;28;20033;-81
2022/01/05 05:45:41;;;;;;;0.35;0.20;;;5.30;93.20;;;;;;5025016;28;20488;-78
2022/01/05 05:48:06;;;;;;;1.92;0.45;;;5.30;93.30;;;;;;5037777;28;20041;-80
2022/01/05 05:50:32;;;;;;;0.50;0.40;;;5.20;93.20;;;;;;5045218;28;20041;-80
2022/01/05 05:52:57;;;;;;;1.88;0.20;;;5.20;93.20;;;;;;5038722;28;20037;-80
2022/01/05 05:55:23;;;;;;;0.93;0.52;;;5.20;93.20;;;;;;5011536;28;20115;-80
2022/01/05 05:57:48;;;;;;;1.30;0.70;;;5.20;93.20;;;;;;5031241;28;20129;-81
2022/01/05 06:00:14;;;;;;;1.23;0.60;;;5.10;93.20;;;;;;5038204;28;20033;-82
2022/01/05 06:02:40;;;;;;;1.77;0.60;;;5.10;93.10;;;;;;5035944;28;20092;-82
2022/01/05 06:05:06;;;;;;;3.47;0.50;;;5.00;93.10;;;;;;5037757;28;20041;-82
2022/01/05 06:07:31;;;;;;;0.70;0.50;;;5.00;93.10;;;;;;5022117;28;20198;-81
2022/01/05 06:09:58;;;;;;;2.17;0.75;;;5.10;93.10;;;;;;5028407;28;20044;-82
2022/01/05 06:12:24;;;;;;;1.02;0.77;;;5.00;93.10;;;;;;5030903;28;20106;-83
2022/01/05 06:14:49;;;;;;;1.35;0.60;;;5.00;93.10;;;;;;5029848;28;20504;-82
2022/01/05 06:17:15;;;;;;;2.00;0.75;;;4.90;93.10;;;;;;5031769;28;20052;-82
2022/01/05 06:19:41;;;;;;;1.45;0.80;;;4.90;93.10;;;;;;5040956;28;20044;-82
2022/01/05 06:22:06;;;;;;;2.35;0.80;;;4.90;93.10;;;;;;5021340;28;20121;-81
2022/01/05 06:24:32;;;;;;;4.20;0.82;;;4.90;93.00;;;;;;5022966;28;20087;-83
2022/01/05 06:26:57;;;;;;;1.75;1.08;;;4.90;93.00;;;;;;5051726;28;20124;-83
2022/01/05 06:29:23;;;;;;;1.52;0.60;;;4.80;93.00;;;;;;5038310;28;20427;-82
2022/01/05 06:31:48;;;;;;;1.90;0.88;;;4.80;93.00;;;;;;5038679;28;20037;-82
2022/01/05 06:34:14;;;;;;;1.85;0.80;;;4.80;93.00;;;;;;5041712;28;20060;-82
2022/01/05 06:36:40;;;;;;;3.78;1.00;;;4.80;93.00;;;;;;5036921;28;20116;-82
2022/01/05 06:39:05;;;;;;;4.15;1.40;;;4.80;93.00;;;;;;5030080;28;20296;-83
2022/01/05 06:41:31;;;;;;;1.90;1.40;;;4.80;93.10;;;;;;5026709;28;20055;-83
2022/01/05 06:43:56;;;;;;;2.60;1.48;;;4.80;93.10;;;;;;5004922;28;20111;-82
2022/01/05 06:46:22;;;;;;;4.60;1.20;;;4.80;93.10;;;;;;5012160;28;20029;-82
2022/01/05 06:48:47;;;;;;;3.55;1.42;;;4.80;93.10;;;;;;5045104;28;20036;-81
2022/01/05 06:51:13;;;;;;;1.23;0.90;;;4.80;93.10;;;;;;5022064;28;20055;-83
2022/01/05 06:53:38;;;;;;;3.58;1.23;;;4.70;93.30;;;;;;5032159;28;20060;-82
2022/01/05 06:56:04;;;;;;;2.97;1.13;;;4.70;93.00;;;;;;5043087;28;20480;-83
2022/01/05 06:58:30;;;;;;;3.97;1.05;;;4.70;93.00;;;;;;5021204;28;20029;-83
2022/01/05 07:00:56;;;;;;;3.40;1.33;;;4.70;93.00;;;;;;5032671;28;20033;-82
2022/01/05 07:03:21;;;;;;;3.63;1.27;;;4.60;93.00;;;;;;5045810;28;20037;-83
2022/01/05 07:05:47;;;;;;;1.75;1.08;;;4.70;93.00;;;;;;5037032;28;20077;-82
2022/01/05 07:08:13;;;;;;;3.42;1.30;;;4.60;92.90;;;;;;5016023;28;20040;-82
2022/01/05 07:10:38;;;;;;;1.90;1.17;;;4.60;93.00;;;;;;5047190;28;20044;-81
2022/01/05 07:13:04;;;;;;;1.92;1.52;;;4.60;93.00;;;;;;5038344;28;20044;-80
2022/01/05 07:15:29;;;;;;;2.30;1.20;;;4.50;93.00;;;;;;5012594;28;20043;-81
2022/01/05 07:17:55;;;;;;;2.08;1.70;;;4.50;93.00;;;;;;5030266;28;20141;-80
2022/01/05 07:20:20;;;;;;;4.95;1.95;;;4.50;93.00;;;;;;5040142;28;20414;-80
2022/01/05 07:22:46;;;;;;;3.88;1.75;;;4.50;93.00;;;;;;5010582;28;20502;-81
2022/01/05 07:25:11;;;;;;;6.25;2.30;;;4.40;93.00;;;;;;5040976;28;20047;-80
2022/01/05 07:27:37;;;;;;;5.95;1.85;;;4.40;93.00;;;;;;5022119;28;20044;-81
2022/01/05 07:30:04;;;;;;;4.53;1.70;;;4.40;93.00;;;;;;5023280;28;20033;-80
2022/01/05 07:32:30;;;;;;;7.28;2.20;;;4.40;92.90;;;;;;5030430;28;20084;-81
2022/01/05 07:34:55;;;;;;;3.03;2.13;;;4.40;93.00;;;;;;5043299;28;20072;-80
2022/01/05 07:37:21;;;;;;;2.72;1.92;;;4.30;92.90;;;;;;5039724;28;20074;-81
2022/01/05 07:39:46;;;;;;;4.07;1.83;;;4.30;92.90;;;;;;5045349;28;20048;-81
2022/01/05 07:42:12;;;;;;;10.65;2.28;;;4.30;92.90;;;;;;5042549;28;20049;-81
2022/01/05 07:44:38;;;;;;;5.10;2.53;;;4.30;92.90;;;;;;5038346;28;20491;-81
2022/01/05 07:47:04;;;;;;;5.13;2.13;;;4.30;92.90;;;;;;5027270;28;20120;-80
2022/01/05 07:49:30;;;;;;;5.93;1.98;;;4.20;92.80;;;;;;5018614;28;20089;-82
2022/01/05 07:51:55;;;;;;;4.22;1.95;;;4.20;92.80;;;;;;5042268;28;20037;-80
2022/01/05 07:54:21;;;;;;;8.75;3.03;;;4.20;92.80;;;;;;5031581;28;20064;-80
2022/01/05 07:56:46;;;;;;;5.28;2.13;;;4.10;92.80;;;;;;5022804;28;20189;-81
2022/01/05 07:59:12;;;;;;;8.85;3.83;;;4.10;92.70;;;;;;5023361;28;20120;-81
2022/01/05 08:01:37;;;;;;;10.10;3.45;;;4.00;92.70;;;;;;5030402;28;20127;-81
2022/01/05 08:04:03;;;;;;;8.93;4.25;;;4.00;92.80;;;;;;5041853;28;20232;-81
2022/01/05 08:06:28;;;;;;;10.43;3.05;;;4.00;93.10;;;;;;5029041;28;20037;-80
2022/01/05 08:08:54;;;;;;;38.00;21.83;;;4.00;92.80;;;;;;5030320;28;20040;-79
2022/01/05 08:11:20;;;;;;;8.77;3.33;;;4.00;92.80;;;;;;5033343;28;20594;-80
2022/01/05 08:13:46;;;;;;;6.32;3.15;;;4.00;92.70;;;;;;4985827;28;20037;-80
2022/01/05 08:16:12;;;;;;;8.65;2.40;;;4.00;92.70;;;;;;5029666;28;20095;-81
2022/01/05 08:18:37;;;;;;;11.48;4.78;;;3.90;92.60;;;;;;5020937;28;20033;-80
2022/01/05 08:21:03;;;;;;;8.85;4.80;;;3.90;92.60;;;;;;5031141;28;20129;-79
2022/01/05 08:23:28;;;;;;;6.60;3.47;;;3.90;92.70;;;;;;5004493;28;20565;-80
2022/01/05 08:25:54;;;;;;;11.25;5.07;;;3.80;92.60;;;;;;5041811;28;20101;-80
2022/01/05 08:28:19;;;;;;;7.25;3.65;;;3.80;92.60;;;;;;5022157;28;20052;-80
2022/01/05 08:30:45;;;;;;;15.15;5.60;;;3.80;92.60;;;;;;5034335;28;20079;-80
2022/01/05 08:33:11;;;;;;;9.18;3.60;;;3.80;92.70;;;;;;5038673;28;20087;-81
2022/01/05 08:35:37;;;;;;;7.85;3.20;;;3.80;93.00;;;;;;5040076;28;20040;-80
2022/01/05 08:38:03;;;;;;;7.45;3.03;;;3.80;92.60;;;;;;5042322;28;20203;-80
2022/01/05 08:40:29;;;;;;;9.10;3.78;;;3.90;92.70;;;;;;5004124;28;20041;-80
2022/01/05 08:42:55;;;;;;;6.93;3.13;;;3.90;92.70;;;;;;5048071;28;20044;-80
2022/01/05 08:45:21;;;;;;;8.25;2.90;;;4.00;92.70;;;;;;5033644;28;20481;-80
2022/01/05 08:47:48;;;;;;;5.65;2.95;;;3.90;92.60;;;;;;5053060;28;20041;-80
2022/01/05 08:50:15;;;;;;;11.88;3.58;;;4.00;92.60;;;;;;5007882;28;20132;-80
2022/01/05 08:52:41;;;;;;;7.93;3.00;;;3.90;92.50;;;;;;5033586;28;20095;-81
2022/01/05 08:55:06;;;;;;;5.03;2.72;;;4.00;92.50;;;;;;5048355;28;22005;-81
2022/01/05 08:57:32;;;;;;;5.80;2.47;;;4.00;92.50;;;;;;5024062;28;20542;-80
2022/01/05 08:59:58;;;;;;;3.85;1.63;;;4.00;92.50;;;;;;5012337;28;20046;-80
2022/01/05 09:02:23;;;;;;;5.43;2.30;;;4.00;92.40;;;;;;5010364;28;20752;-80
2022/01/05 09:04:51;;;;;;;4.70;2.13;;;4.00;92.40;;;;;;5023884;28;20025;-80
2022/01/05 09:07:18;;;;;;;4.55;1.98;;;4.10;92.50;;;;;;5022893;28;20459;-80
2022/01/05 09:09:44;;;;;;;6.65;1.90;;;4.10;92.40;;;;;;5005172;28;20038;-80
2022/01/05 09:12:10;;;;;;;4.68;1.58;;;4.20;92.40;;;;;;4989492;28;20037;-80
2022/01/05 09:14:35;;;;;;;3.47;1.20;;;4.20;92.30;;;;;;5039081;28;20063;-80
2022/01/05 09:17:01;;;;;;;6.30;1.85;;;4.30;92.30;;;;;;5014785;28;20057;-80
2022/01/05 09:19:28;;;;;;;3.38;1.50;;;4.30;92.20;;;;;;5012948;28;20130;-80
2022/01/05 09:21:54;;;;;;;5.38;1.33;;;4.30;92.20;;;;;;5021392;28;20040;-80
2022/01/05 09:24:19;;;;;;;2.35;1.10;;;4.40;92.20;;;;;;5009080;28;20759;-82
2022/01/05 09:26:45;;;;;;;5.13;1.33;;;4.40;92.10;;;;;;5011704;28;20408;-82
2022/01/05 09:29:10;;;;;;;6.93;1.45;;;4.40;91.90;;;;;;5009343;28;20475;-80
2022/01/05 09:31:36;;;;;;;3.95;1.27;;;4.30;91.80;;;;;;5005636;28;20039;-80
2022/01/05 09:34:01;;;;;;;2.08;1.20;;;4.30;91.80;;;;;;5004937;28;20041;-80
2022/01/05 09:36:34;;;;;;;6.47;1.25;;;4.30;91.70;;;;;;5016190;28;20036;-80
2022/01/05 09:42:00;;;;;;;6.45;1.98;;;4.20;91.70;;;;;;5040189;28;20055;-80
2022/01/05 09:44:33;;;;;;;4.15;1.02;;;4.30;91.70;;;;;;5023757;28;20120;-79
2022/01/05 09:47:08;;;;;;;4.35;1.45;;;4.20;91.70;;;;;;5013688;28;20136;-80
2022/01/05 09:49:35;;;;;;;4.35;1.40;;;4.20;91.60;;;;;;5041731;28;20035;-79
2022/01/05 09:52:06;;;;;;;3.92;1.33;;;4.30;91.70;;;;;;5004919;28;20021;-81
2022/01/05 09:54:33;;;;;;;7.82;1.67;;;4.20;91.70;;;;;;5042811;28;20028;-81
2022/01/05 09:56:59;;;;;;;8.15;2.20;;;4.30;91.70;;;;;;5021662;28;20120;-81
2022/01/05 09:59:24;;;;;;;5.00;2.60;;;4.30;91.60;;;;;;5039432;28;20139;-80
2022/01/05 10:01:50;;;;;;;3.90;1.08;;;4.30;91.50;;;;;;5032977;28;20029;-80
2022/01/05 10:04:16;;;;;;;2.95;1.25;;;4.30;91.50;;;;;;5027016;28;20036;-80
2022/01/05 10:06:41;;;;;;;2.50;1.17;;;4.30;91.40;;;;;;5019321;28;20041;-80
2022/01/05 10:09:08;;;;;;;3.05;1.10;;;4.20;91.40;;;;;;5021304;28;20036;-81
2022/01/05 10:11:33;;;;;;;2.05;0.90;;;4.20;91.40;;;;;;5011912;28;20039;-80
2022/01/05 10:13:59;;;;;;;7.43;1.60;;;4.20;91.40;;;;;;5007466;28;20037;-79
2022/01/05 10:16:24;;;;;;;4.95;1.20;;;4.20;91.30;;;;;;5039000;28;20094;-81
2022/01/05 10:18:50;;;;;;;5.75;1.00;;;4.20;91.30;;;;;;5022019;28;20090;-79
2022/01/05 10:21:16;;;;;;;5.47;0.98;;;4.20;91.20;;;;;;5036077;28;20033;-80
2022/01/05 10:23:46;;;;;;;5.97;1.20;;;4.20;91.20;;;;;;5043102;28;20033;-80
2022/01/05 10:26:21;;;;;;;3.53;1.27;;;4.10;91.20;;;;;;5029096;28;20106;-80
2022/01/05 10:28:47;;;;;;;5.15;1.77;;;4.10;91.10;;;;;;5036628;28;20060;-82
2022/01/05 10:31:17;;;;;;;5.00;1.55;;;4.10;91.20;;;;;;5029129;28;20112;-79
2022/01/05 10:33:43;;;;;;;4.75;1.65;;;4.10;91.20;;;;;;5022291;28;20037;-80
2022/01/05 10:36:08;;;;;;;6.55;1.45;;;4.20;91.20;;;;;;5019712;28;20044;-80
2022/01/05 10:38:34;;;;;;;2.28;1.27;;;4.20;91.10;;;;;;5021637;28;20518;-79
2022/01/05 10:41:16;;;;;;;3.50;1.60;;;4.20;91.10;;;;;;5002936;28;20037;-80
2022/01/05 10:44:09;;;;;;;4.50;1.33;;;4.20;91.00;;;;;;5020059;28;20044;-80
2022/01/05 10:46:39;;;;;;;3.55;1.23;;;4.20;91.00;;;;;;5037632;28;20036;-80
2022/01/05 10:49:05;;;;;;;6.93;1.30;;;4.20;91.10;;;;;;5023982;28;20037;-81
2022/01/05 10:51:31;;;;;;;3.78;1.50;;;4.30;91.20;;;;;;4996501;28;20035;-80
2022/01/05 10:54:16;;;;;;;5.45;1.08;;;4.30;91.10;;;;;;5037984;28;20037;-80
2022/01/05 10:56:42;;;;;;;3.65;1.50;;;4.30;91.00;;;;;;5016243;28;20075;-80
2022/01/05 10:59:07;;;;;;;4.25;1.38;;;4.30;91.00;;;;;;5027308;28;20543;-79
2022/01/05 11:01:33;;;;;;;5.57;1.35;;;4.30;90.90;;;;;;5004884;28;20805;-81
2022/01/05 11:03:59;;;;;;;8.23;1.30;;;4.30;90.90;;;;;;5012001;28;20028;-81
2022/01/05 11:06:25;;;;;;;8.15;1.60;;;4.30;90.90;;;;;;5027624;28;20064;-80
2022/01/05 11:08:59;;;;;;;6.15;1.25;;;4.30;90.80;;;;;;5044165;28;21375;-80
2022/01/05 11:11:37;;;;;;;5.70;1.65;;;4.20;90.70;;;;;;5023181;28;20052;-81
2022/01/05 11:14:04;;;;;;;5.45;1.23;;;4.10;90.60;;;;;;5034201;28;20511;-80
2022/01/05 11:16:30;;;;;;;5.80;1.40;;;4.10;90.70;;;;;;5027644;28;20044;-79
2022/01/05 11:19:23;;;;;;;6.40;2.10;;;4.10;90.70;;;;;;5033276;28;20036;-79
2022/01/05 11:22:19;;;;;;;6.28;2.42;;;4.10;90.70;;;;;;5026329;28;20086;-80
2022/01/05 11:24:52;;;;;;;7.78;1.52;;;4.10;90.60;;;;;;5028345;28;20045;-80
2022/01/05 11:27:27;;;;;;;5.07;1.42;;;4.10;90.60;;;;;;4995055;28;20104;-80
2022/01/05 11:29:52;;;;;;;6.28;1.85;;;4.10;90.60;;;;;;5049882;28;20032;-80
2022/01/05 11:32:20;;;;;;;7.22;1.40;;;4.10;90.60;;;;;;5045476;28;20552;-80
2022/01/05 11:34:46;;;;;;;4.28;1.42;;;4.10;90.60;;;;;;5027415;28;20541;-80
2022/01/05 11:37:12;;;;;;;9.75;1.23;;;4.10;90.60;;;;;;5044820;28;20087;-80
2022/01/05 11:39:45;;;;;;;6.90;1.65;;;4.10;90.60;;;;;;5019517;28;20475;-81
2022/01/05 11:42:13;;;;;;;7.88;2.03;;;4.10;90.90;;;;;;5043760;28;20049;-80
2022/01/05 11:44:54;;;;;;;3.97;1.23;;;4.10;90.60;;;;;;5028061;28;20060;-79
2022/01/05 11:47:27;;;;;;;7.83;1.67;;;4.10;90.40;;;;;;5003197;28;20091;-80
2022/01/05 11:49:54;;;;;;;5.20;1.52;;;4.00;90.40;;;;;;5021347;28;20036;-80
2022/01/05 11:52:56;;;;;;;6.32;1.80;;;4.00;90.40;;;;;;5034081;28;20037;-80
2022/01/05 11:55:22;;;;;;;2.00;1.40;;;4.00;90.20;;;;;;5025340;28;20036;-81
2022/01/05 11:58:19;;;;;;;6.25;2.17;;;4.00;90.40;;;;;;5048879;28;20099;-80
2022/01/05 12:00:46;;;;;;;7.60;1.50;;;4.10;90.20;;;;;;5025860;28;20252;-80
2022/01/05 12:03:11;;;;;;;3.88;1.50;;;4.10;90.40;;;;;;5044319;28;20624;-80
2022/01/05 12:06:02;;;;;;;5.45;1.75;;;4.10;90.30;;;;;;5028303;28;20047;-81
2022/01/05 12:08:43;;;;;;;6.32;1.73;;;4.10;90.10;;;;;;5042095;28;20036;-80
2022/01/05 12:11:30;;;;;;;7.72;1.42;;;4.10;90.10;;;;;;5023772;28;20576;-80
2022/01/05 12:14:03;;;;;;;2.90;1.40;;;4.10;90.10;;;;;;5049684;28;20033;-80
2022/01/05 12:16:29;;;;;;;6.05;2.00;;;4.00;90.20;;;;;;5041290;28;20062;-80
2022/01/05 12:19:05;;;;;;;4.57;1.45;;;4.00;90.30;;;;;;5013746;28;20040;-80
2022/01/05 12:21:48;;;;;;;5.05;1.85;;;4.10;90.20;;;;;;5023535;28;20105;-80
2022/01/05 12:24:14;;;;;;;7.60;2.13;;;4.10;90.10;;;;;;5017543;28;20037;-79
2022/01/05 12:26:40;;;;;;;5.10;1.52;;;4.10;90.20;;;;;;5004552;28;20493;-80
2022/01/05 12:29:05;;;;;;;7.97;2.30;;;4.10;90.10;;;;;;5039879;28;20575;-80
2022/01/05 12:31:51;;;;;;;10.13;3.03;;;4.00;90.10;;;;;;5042927;28;20033;-79
2022/01/05 12:34:55;;;;;;;6.75;2.15;;;4.10;90.00;;;;;;5024664;28;20060;-79
2022/01/05 12:37:41;;;;;;;9.80;3.58;;;4.10;90.00;;;;;;5032664;28;20040;-80
2022/01/05 12:40:26;;;;;;;6.35;2.25;;;4.10;90.20;;;;;;5038324;28;20036;-79
2022/01/05 12:43:13;;;;;;;5.07;1.70;;;4.10;90.10;;;;;;5039788;28;20121;-79
2022/01/05 12:45:58;;;;;;;5.10;1.60;;;4.10;90.00;;;;;;5024280;28;20489;-79
2022/01/05 12:48:33;;;;;;;5.28;1.95;;;4.10;90.00;;;;;;5023641;28;20040;-79
2022/01/05 12:51:31;;;;;;;5.15;2.25;;;4.10;90.10;;;;;;5039359;28;20048;-79
2022/01/05 12:54:06;;;;;;;4.82;1.90;;;4.10;90.00;;;;;;5029926;28;20120;-79
2022/01/05 12:56:43;;;;;;;3.90;1.35;;;4.10;90.10;;;;;;5014696;28;20041;-79
2022/01/05 12:59:30;;;;;;;4.75;1.20;;;4.10;90.00;;;;;;5025471;28;20028;-80
2022/01/05 13:02:00;;;;;;;4.70;1.30;;;4.10;89.90;;;;;;5021813;28;20057;-80